sensor_id;sensor_type;location;lat;lon;timestamp;temperature;humidity
35700;DHT22;21818;51.078;12.108;2023-02-14T00:01:11;8.40;85.00
35700;DHT22;21818;51.078;12.108;2023-02-14T00:03:38;8.30;85.00
35700;DHT22;21818;51.078;12.108;2023-02-14T00:06:09;8.30;85.10
35700;DHT22;21818;51.078;12.108;2023-02-14T00:08:35;8.30;85.20
35700;DHT22;21818;51.078;12.108;2023-02-14T00:11:01;8.50;85.10
35700;DHT22;21818;51.078;12.108;2023-02-14T00:13:27;8.60;84.90
35700;DHT22;21818;51.078;12.108;2023-02-14T00:15:53;8.60;84.90
35700;DHT22;21818;51.078;12.108;2023-02-14T00:18:19;8.50;85.30
35700;DHT22;21818;51.078;12.108;2023-02-14T00:20:45;8.30;85.60
35700;DHT22;21818;51.078;12.108;2023-02-14T00:23:10;8.20;86.00
35700;DHT22;21818;51.078;12.108;2023-02-14T00:25:36;8.20;86.00
35700;DHT22;21818;51.078;12.108;2023-02-14T00:28:01;8.20;86.00
35700;DHT22;21818;51.078;12.108;2023-02-14T00:30:27;8.10;86.10
35700;DHT22;21818;51.078;12.108;2023-02-14T00:32:53;8.20;86.10
35700;DHT22;21818;51.078;12.108;2023-02-14T00:35:18;8.20;86.10
35700;DHT22;21818;51.078;12.108;2023-02-14T00:37:45;8.10;86.10
35700;DHT22;21818;51.078;12.108;2023-02-14T00:40:11;8.10;86.00
35700;DHT22;21818;51.078;12.108;2023-02-14T00:42:37;8.10;86.00
35700;DHT22;21818;51.078;12.108;2023-02-14T00:45:03;8.10;86.00
35700;DHT22;21818;51.078;12.108;2023-02-14T00:47:28;8.10;86.10
35700;DHT22;21818;51.078;12.108;2023-02-14T00:49:54;8.10;86.00
35700;DHT22;21818;51.078;12.108;2023-02-14T00:52:19;8.10;86.00
35700;DHT22;21818;51.078;12.108;2023-02-14T00:54:45;8.10;85.90
35700;DHT22;21818;51.078;12.108;2023-02-14T00:57:11;8.10;85.80
35700;DHT22;21818;51.078;12.108;2023-02-14T00:59:36;8.10;85.80
35700;DHT22;21818;51.078;12.108;2023-02-14T01:02:02;8.00;85.80
35700;DHT22;21818;51.078;12.108;2023-02-14T01:04:27;8.00;85.80
35700;DHT22;21818;51.078;12.108;2023-02-14T01:06:53;8.00;85.80
35700;DHT22;21818;51.078;12.108;2023-02-14T01:09:18;7.90;85.90
35700;DHT22;21818;51.078;12.108;2023-02-14T01:11:44;8.00;85.80
35700;DHT22;21818;51.078;12.108;2023-02-14T01:14:09;7.90;85.90
35700;DHT22;21818;51.078;12.108;2023-02-14T01:16:37;7.90;85.80
35700;DHT22;21818;51.078;12.108;2023-02-14T01:19:03;7.90;85.80
35700;DHT22;21818;51.078;12.108;2023-02-14T01:21:31;7.90;86.20
35700;DHT22;21818;51.078;12.108;2023-02-14T01:23:59;7.80;85.60
35700;DHT22;21818;51.078;12.108;2023-02-14T01:26:26;7.80;85.70
35700;DHT22;21818;51.078;12.108;2023-02-14T01:28:52;7.80;85.50
35700;DHT22;21818;51.078;12.108;2023-02-14T01:31:32;7.80;85.70
35700;DHT22;21818;51.078;12.108;2023-02-14T01:33:58;8.00;85.60
35700;DHT22;21818;51.078;12.108;2023-02-14T01:36:32;8.00;85.50
35700;DHT22;21818;51.078;12.108;2023-02-14T01:39:02;7.90;86.20
35700;DHT22;21818;51.078;12.108;2023-02-14T01:41:32;7.80;85.70
35700;DHT22;21818;51.078;12.108;2023-02-14T01:46:41;7.70;86.00
35700;DHT22;21818;51.078;12.108;2023-02-14T01:49:31;7.70;85.80
35700;DHT22;21818;51.078;12.108;2023-02-14T01:52:09;7.70;85.70
35700;DHT22;21818;51.078;12.108;2023-02-14T01:54:40;7.70;85.60
35700;DHT22;21818;51.078;12.108;2023-02-14T01:57:09;7.70;85.60
35700;DHT22;21818;51.078;12.108;2023-02-14T01:59:40;7.60;85.60
35700;DHT22;21818;51.078;12.108;2023-02-14T02:02:07;7.60;86.10
35700;DHT22;21818;51.078;12.108;2023-02-14T02:04:38;7.60;85.40
35700;DHT22;21818;51.078;12.108;2023-02-14T02:07:09;7.60;85.50
35700;DHT22;21818;51.078;12.108;2023-02-14T02:09:41;7.60;85.80
35700;DHT22;21818;51.078;12.108;2023-02-14T02:12:08;7.60;85.20
35700;DHT22;21818;51.078;12.108;2023-02-14T02:14:34;7.60;85.20
35700;DHT22;21818;51.078;12.108;2023-02-14T02:17:25;7.60;85.20
35700;DHT22;21818;51.078;12.108;2023-02-14T02:23:10;7.60;85.20
35700;DHT22;21818;51.078;12.108;2023-02-14T02:28:26;7.50;85.20
35700;DHT22;21818;51.078;12.108;2023-02-14T02:42:02;7.50;85.10
35700;DHT22;21818;51.078;12.108;2023-02-14T02:53:27;7.40;85.10
35700;DHT22;21818;51.078;12.108;2023-02-14T02:56:21;7.40;85.10
35700;DHT22;21818;51.078;12.108;2023-02-14T02:59:24;7.40;85.10
35700;DHT22;21818;51.078;12.108;2023-02-14T03:04:27;7.50;84.80
35700;DHT22;21818;51.078;12.108;2023-02-14T03:07:12;7.50;84.90
35700;DHT22;21818;51.078;12.108;2023-02-14T03:09:58;7.50;84.90
35700;DHT22;21818;51.078;12.108;2023-02-14T03:18:02;7.70;84.80
35700;DHT22;21818;51.078;12.108;2023-02-14T03:24:21;7.80;84.90
35700;DHT22;21818;51.078;12.108;2023-02-14T03:26:56;7.80;84.80
35700;DHT22;21818;51.078;12.108;2023-02-14T03:32:33;7.90;84.80
35700;DHT22;21818;51.078;12.108;2023-02-14T03:35:16;7.80;84.90
35700;DHT22;21818;51.078;12.108;2023-02-14T03:37:48;7.90;84.80
35700;DHT22;21818;51.078;12.108;2023-02-14T03:43:33;7.90;84.80
35700;DHT22;21818;51.078;12.108;2023-02-14T03:48:40;7.90;84.80
35700;DHT22;21818;51.078;12.108;2023-02-14T03:51:09;7.90;84.90
35700;DHT22;21818;51.078;12.108;2023-02-14T03:53:37;8.00;85.00
35700;DHT22;21818;51.078;12.108;2023-02-14T03:58:38;8.00;84.80
35700;DHT22;21818;51.078;12.108;2023-02-14T04:01:18;8.00;84.80
35700;DHT22;21818;51.078;12.108;2023-02-14T04:03:45;8.00;84.90
35700;DHT22;21818;51.078;12.108;2023-02-14T04:06:11;8.10;84.90
35700;DHT22;21818;51.078;12.108;2023-02-14T04:08:37;8.10;84.70
35700;DHT22;21818;51.078;12.108;2023-02-14T04:11:04;8.10;84.60
35700;DHT22;21818;51.078;12.108;2023-02-14T04:13:30;8.10;84.70
35700;DHT22;21818;51.078;12.108;2023-02-14T04:15:55;8.10;84.70
35700;DHT22;21818;51.078;12.108;2023-02-14T04:18:21;8.10;84.70
35700;DHT22;21818;51.078;12.108;2023-02-14T04:21:05;8.10;84.70
35700;DHT22;21818;51.078;12.108;2023-02-14T04:23:31;8.10;84.60
35700;DHT22;21818;51.078;12.108;2023-02-14T04:25:57;8.20;84.60
35700;DHT22;21818;51.078;12.108;2023-02-14T04:28:22;8.20;84.50
35700;DHT22;21818;51.078;12.108;2023-02-14T04:30:48;8.20;84.50
35700;DHT22;21818;51.078;12.108;2023-02-14T04:33:14;8.20;84.50
35700;DHT22;21818;51.078;12.108;2023-02-14T04:35:39;8.20;84.40
35700;DHT22;21818;51.078;12.108;2023-02-14T04:38:05;8.20;84.40
35700;DHT22;21818;51.078;12.108;2023-02-14T04:40:30;8.20;84.50
35700;DHT22;21818;51.078;12.108;2023-02-14T04:42:56;8.20;84.50
35700;DHT22;21818;51.078;12.108;2023-02-14T04:45:22;8.20;84.50
35700;DHT22;21818;51.078;12.108;2023-02-14T04:47:47;8.20;84.50
35700;DHT22;21818;51.078;12.108;2023-02-14T04:50:13;8.20;84.60
35700;DHT22;21818;51.078;12.108;2023-02-14T04:52:39;8.20;84.60
35700;DHT22;21818;51.078;12.108;2023-02-14T04:55:07;8.20;84.70
35700;DHT22;21818;51.078;12.108;2023-02-14T04:57:33;8.10;84.70
35700;DHT22;21818;51.078;12.108;2023-02-14T04:59:59;8.10;84.70
35700;DHT22;21818;51.078;12.108;2023-02-14T05:02:25;8.20;84.60
35700;DHT22;21818;51.078;12.108;2023-02-14T05:04:50;8.20;84.60
35700;DHT22;21818;51.078;12.108;2023-02-14T05:07:16;8.20;84.60
35700;DHT22;21818;51.078;12.108;2023-02-14T05:09:41;8.20;84.50
35700;DHT22;21818;51.078;12.108;2023-02-14T05:12:07;8.20;84.60
35700;DHT22;21818;51.078;12.108;2023-02-14T05:14:33;8.20;84.50
35700;DHT22;21818;51.078;12.108;2023-02-14T05:16:58;8.20;84.70
35700;DHT22;21818;51.078;12.108;2023-02-14T05:19:25;8.10;84.80
35700;DHT22;21818;51.078;12.108;2023-02-14T05:21:50;8.20;84.80
35700;DHT22;21818;51.078;12.108;2023-02-14T05:24:16;8.20;84.80
35700;DHT22;21818;51.078;12.108;2023-02-14T05:26:42;8.20;84.70
35700;DHT22;21818;51.078;12.108;2023-02-14T05:29:07;8.20;84.70
35700;DHT22;21818;51.078;12.108;2023-02-14T05:31:33;8.30;84.60
35700;DHT22;21818;51.078;12.108;2023-02-14T05:33:58;8.30;84.70
35700;DHT22;21818;51.078;12.108;2023-02-14T05:36:24;8.30;84.80
35700;DHT22;21818;51.078;12.108;2023-02-14T05:38:50;8.40;84.70
35700;DHT22;21818;51.078;12.108;2023-02-14T05:41:15;8.40;84.80
35700;DHT22;21818;51.078;12.108;2023-02-14T05:43:41;8.40;84.90
35700;DHT22;21818;51.078;12.108;2023-02-14T05:46:06;8.30;85.00
35700;DHT22;21818;51.078;12.108;2023-02-14T05:48:32;8.30;85.10
35700;DHT22;21818;51.078;12.108;2023-02-14T05:51:03;8.30;85.10
35700;DHT22;21818;51.078;12.108;2023-02-14T05:53:29;8.30;85.20
35700;DHT22;21818;51.078;12.108;2023-02-14T05:55:55;8.30;85.20
35700;DHT22;21818;51.078;12.108;2023-02-14T05:58:20;8.30;85.10
35700;DHT22;21818;51.078;12.108;2023-02-14T06:00:46;8.30;85.40
35700;DHT22;21818;51.078;12.108;2023-02-14T06:03:11;8.20;85.00
35700;DHT22;21818;51.078;12.108;2023-02-14T06:05:37;8.20;85.20
35700;DHT22;21818;51.078;12.108;2023-02-14T06:08:02;8.20;85.30
35700;DHT22;21818;51.078;12.108;2023-02-14T06:10:28;8.20;85.30
35700;DHT22;21818;51.078;12.108;2023-02-14T06:12:54;8.20;85.30
35700;DHT22;21818;51.078;12.108;2023-02-14T06:15:19;8.20;85.30
35700;DHT22;21818;51.078;12.108;2023-02-14T06:17:56;8.20;85.20
35700;DHT22;21818;51.078;12.108;2023-02-14T06:20:22;8.20;85.10
35700;DHT22;21818;51.078;12.108;2023-02-14T06:22:49;8.30;85.20
35700;DHT22;21818;51.078;12.108;2023-02-14T06:25:14;8.30;85.00
35700;DHT22;21818;51.078;12.108;2023-02-14T06:27:40;8.30;85.10
35700;DHT22;21818;51.078;12.108;2023-02-14T06:30:07;8.30;85.10
35700;DHT22;21818;51.078;12.108;2023-02-14T06:32:33;8.30;85.10
35700;DHT22;21818;51.078;12.108;2023-02-14T06:34:59;8.30;85.10
35700;DHT22;21818;51.078;12.108;2023-02-14T06:37:24;8.20;85.20
35700;DHT22;21818;51.078;12.108;2023-02-14T06:39:50;8.30;85.30
35700;DHT22;21818;51.078;12.108;2023-02-14T06:42:16;8.40;85.30
35700;DHT22;21818;51.078;12.108;2023-02-14T06:44:41;8.50;85.30
35700;DHT22;21818;51.078;12.108;2023-02-14T06:47:07;8.50;85.30
35700;DHT22;21818;51.078;12.108;2023-02-14T06:49:33;8.70;85.20
35700;DHT22;21818;51.078;12.108;2023-02-14T06:51:58;8.90;84.90
35700;DHT22;21818;51.078;12.108;2023-02-14T06:54:24;9.10;84.60
35700;DHT22;21818;51.078;12.108;2023-02-14T06:56:49;9.20;84.20
35700;DHT22;21818;51.078;12.108;2023-02-14T06:59:15;9.30;83.90
35700;DHT22;21818;51.078;12.108;2023-02-14T07:01:41;9.40;83.60
35700;DHT22;21818;51.078;12.108;2023-02-14T07:04:06;9.50;83.40
35700;DHT22;21818;51.078;12.108;2023-02-14T07:06:32;9.60;83.20
35700;DHT22;21818;51.078;12.108;2023-02-14T07:08:57;9.60;83.10
35700;DHT22;21818;51.078;12.108;2023-02-14T07:11:23;9.60;83.10
35700;DHT22;21818;51.078;12.108;2023-02-14T07:13:49;9.50;83.10
35700;DHT22;21818;51.078;12.108;2023-02-14T07:16:14;9.50;82.90
35700;DHT22;21818;51.078;12.108;2023-02-14T07:18:40;9.50;83.00
35700;DHT22;21818;51.078;12.108;2023-02-14T07:21:05;9.50;83.00
35700;DHT22;21818;51.078;12.108;2023-02-14T07:23:31;9.40;82.80
35700;DHT22;21818;51.078;12.108;2023-02-14T07:25:57;9.50;82.80
35700;DHT22;21818;51.078;12.108;2023-02-14T07:28:29;9.50;82.70
35700;DHT22;21818;51.078;12.108;2023-02-14T07:30:58;9.40;82.60
35700;DHT22;21818;51.078;12.108;2023-02-14T07:33:25;9.40;82.70
35700;DHT22;21818;51.078;12.108;2023-02-14T07:35:50;9.40;82.50
35700;DHT22;21818;51.078;12.108;2023-02-14T07:38:16;9.50;82.50
35700;DHT22;21818;51.078;12.108;2023-02-14T07:40:41;9.90;82.20
35700;DHT22;21818;51.078;12.108;2023-02-14T07:43:07;10.30;81.50
35700;DHT22;21818;51.078;12.108;2023-02-14T07:45:33;10.70;80.90
35700;DHT22;21818;51.078;12.108;2023-02-14T07:47:58;10.90;80.40
35700;DHT22;21818;51.078;12.108;2023-02-14T07:50:27;11.10;80.00
35700;DHT22;21818;51.078;12.108;2023-02-14T07:52:53;11.20;79.70
35700;DHT22;21818;51.078;12.108;2023-02-14T07:55:19;11.30;79.70
35700;DHT22;21818;51.078;12.108;2023-02-14T07:57:48;11.40;79.50
35700;DHT22;21818;51.078;12.108;2023-02-14T08:00:14;11.40;79.20
35700;DHT22;21818;51.078;12.108;2023-02-14T08:02:40;11.50;79.10
35700;DHT22;21818;51.078;12.108;2023-02-14T08:05:06;11.60;78.90
35700;DHT22;21818;51.078;12.108;2023-02-14T08:07:32;11.60;78.90
35700;DHT22;21818;51.078;12.108;2023-02-14T08:09:57;11.60;79.00
35700;DHT22;21818;51.078;12.108;2023-02-14T08:12:23;11.60;79.00
35700;DHT22;21818;51.078;12.108;2023-02-14T08:15:07;11.60;78.80
35700;DHT22;21818;51.078;12.108;2023-02-14T08:17:51;11.60;78.90
35700;DHT22;21818;51.078;12.108;2023-02-14T08:20:17;11.60;78.90
35700;DHT22;21818;51.078;12.108;2023-02-14T08:22:42;11.60;78.80
35700;DHT22;21818;51.078;12.108;2023-02-14T08:25:08;11.60;78.90
35700;DHT22;21818;51.078;12.108;2023-02-14T08:27:34;11.60;79.00
35700;DHT22;21818;51.078;12.108;2023-02-14T08:29:59;11.50;79.10
35700;DHT22;21818;51.078;12.108;2023-02-14T08:32:25;11.50;79.10
35700;DHT22;21818;51.078;12.108;2023-02-14T08:34:50;11.50;79.10
35700;DHT22;21818;51.078;12.108;2023-02-14T08:37:16;11.50;79.10
35700;DHT22;21818;51.078;12.108;2023-02-14T08:39:41;11.50;79.10
35700;DHT22;21818;51.078;12.108;2023-02-14T08:42:07;11.50;79.10
35700;DHT22;21818;51.078;12.108;2023-02-14T08:44:32;11.60;79.10
35700;DHT22;21818;51.078;12.108;2023-02-14T08:46:58;11.60;79.00
35700;DHT22;21818;51.078;12.108;2023-02-14T08:49:23;11.80;78.70
35700;DHT22;21818;51.078;12.108;2023-02-14T08:51:49;11.90;78.40
35700;DHT22;21818;51.078;12.108;2023-02-14T08:54:14;11.90;78.20
35700;DHT22;21818;51.078;12.108;2023-02-14T08:56:40;12.00;78.00
35700;DHT22;21818;51.078;12.108;2023-02-14T08:59:06;12.00;77.90
35700;DHT22;21818;51.078;12.108;2023-02-14T09:01:31;12.00;77.90
35700;DHT22;21818;51.078;12.108;2023-02-14T09:03:57;12.00;77.80
35700;DHT22;21818;51.078;12.108;2023-02-14T09:06:23;12.10;77.70
35700;DHT22;21818;51.078;12.108;2023-02-14T09:08:49;12.20;77.50
35700;DHT22;21818;51.078;12.108;2023-02-14T09:11:17;12.30;77.30
35700;DHT22;21818;51.078;12.108;2023-02-14T09:13:44;12.30;77.20
35700;DHT22;21818;51.078;12.108;2023-02-14T09:16:12;12.30;77.10
35700;DHT22;21818;51.078;12.108;2023-02-14T09:18:38;12.30;77.10
35700;DHT22;21818;51.078;12.108;2023-02-14T09:21:09;12.40;77.20
35700;DHT22;21818;51.078;12.108;2023-02-14T09:23:37;12.40;77.10
35700;DHT22;21818;51.078;12.108;2023-02-14T09:26:06;12.40;77.00
35700;DHT22;21818;51.078;12.108;2023-02-14T09:28:32;12.40;77.00
35700;DHT22;21818;51.078;12.108;2023-02-14T09:30:57;12.40;76.90
35700;DHT22;21818;51.078;12.108;2023-02-14T09:33:26;12.40;76.90
35700;DHT22;21818;51.078;12.108;2023-02-14T09:35:53;12.40;76.80
35700;DHT22;21818;51.078;12.108;2023-02-14T09:38:37;12.50;76.80
35700;DHT22;21818;51.078;12.108;2023-02-14T09:41:07;12.50;76.70
35700;DHT22;21818;51.078;12.108;2023-02-14T09:43:40;12.50;76.50
35700;DHT22;21818;51.078;12.108;2023-02-14T09:46:10;12.50;76.50
35700;DHT22;21818;51.078;12.108;2023-02-14T09:48:43;12.60;76.50
35700;DHT22;21818;51.078;12.108;2023-02-14T09:51:21;12.60;76.30
35700;DHT22;21818;51.078;12.108;2023-02-14T09:53:53;12.60;76.30
35700;DHT22;21818;51.078;12.108;2023-02-14T10:10:21;12.40;76.60
35700;DHT22;21818;51.078;12.108;2023-02-14T10:12:58;12.40;76.70
35700;DHT22;21818;51.078;12.108;2023-02-14T10:15:27;12.40;76.70
35700;DHT22;21818;51.078;12.108;2023-02-14T10:17:59;12.40;76.60
35700;DHT22;21818;51.078;12.108;2023-02-14T10:20:28;12.50;76.60
35700;DHT22;21818;51.078;12.108;2023-02-14T10:23:26;12.50;76.50
35700;DHT22;21818;51.078;12.108;2023-02-14T10:28:33;12.60;76.30
35700;DHT22;21818;51.078;12.108;2023-02-14T10:31:22;12.70;76.20
35700;DHT22;21818;51.078;12.108;2023-02-14T10:33:55;12.70;76.20
35700;DHT22;21818;51.078;12.108;2023-02-14T10:42:36;12.60;76.30
35700;DHT22;21818;51.078;12.108;2023-02-14T10:50:38;12.70;76.00
35700;DHT22;21818;51.078;12.108;2023-02-14T10:53:19;12.70;76.10
35700;DHT22;21818;51.078;12.108;2023-02-14T10:55:56;12.70;76.20
35700;DHT22;21818;51.078;12.108;2023-02-14T10:58:26;12.60;76.20
35700;DHT22;21818;51.078;12.108;2023-02-14T11:01:11;12.60;76.20
35700;DHT22;21818;51.078;12.108;2023-02-14T11:03:40;12.70;76.10
35700;DHT22;21818;51.078;12.108;2023-02-14T11:06:07;12.70;76.10
35700;DHT22;21818;51.078;12.108;2023-02-14T11:08:39;12.70;75.90
35700;DHT22;21818;51.078;12.108;2023-02-14T11:13:56;12.80;75.90
35700;DHT22;21818;51.078;12.108;2023-02-14T11:21:44;12.80;75.60
35700;DHT22;21818;51.078;12.108;2023-02-14T11:24:39;12.90;75.60
35700;DHT22;21818;51.078;12.108;2023-02-14T11:32:07;13.00;75.50
35700;DHT22;21818;51.078;12.108;2023-02-14T11:34:39;13.00;75.40
35700;DHT22;21818;51.078;12.108;2023-02-14T11:39:41;13.20;75.00
35700;DHT22;21818;51.078;12.108;2023-02-14T11:42:11;13.20;74.90
35700;DHT22;21818;51.078;12.108;2023-02-14T11:44:37;13.20;74.80
35700;DHT22;21818;51.078;12.108;2023-02-14T11:47:28;13.20;74.90
35700;DHT22;21818;51.078;12.108;2023-02-14T11:50:00;13.20;74.90
35700;DHT22;21818;51.078;12.108;2023-02-14T11:52:27;13.20;74.90
35700;DHT22;21818;51.078;12.108;2023-02-14T11:54:55;13.20;74.80
35700;DHT22;21818;51.078;12.108;2023-02-14T11:57:41;13.20;74.70
35700;DHT22;21818;51.078;12.108;2023-02-14T12:00:16;13.30;74.60
35700;DHT22;21818;51.078;12.108;2023-02-14T12:02:49;13.40;74.60
35700;DHT22;21818;51.078;12.108;2023-02-14T12:05:22;13.40;74.50
35700;DHT22;21818;51.078;12.108;2023-02-14T12:07:53;13.50;74.40
35700;DHT22;21818;51.078;12.108;2023-02-14T12:10:33;13.50;74.20
35700;DHT22;21818;51.078;12.108;2023-02-14T12:13:03;13.60;74.10
35700;DHT22;21818;51.078;12.108;2023-02-14T12:15:55;13.70;73.90
35700;DHT22;21818;51.078;12.108;2023-02-14T12:18:45;13.80;73.70
35700;DHT22;21818;51.078;12.108;2023-02-14T12:23:54;14.00;73.20
35700;DHT22;21818;51.078;12.108;2023-02-14T12:31:29;14.20;72.90
35700;DHT22;21818;51.078;12.108;2023-02-14T12:33:55;14.30;72.70
35700;DHT22;21818;51.078;12.108;2023-02-14T12:47:27;14.90;71.60
35700;DHT22;21818;51.078;12.108;2023-02-14T12:50:08;15.00;71.30
35700;DHT22;21818;51.078;12.108;2023-02-14T12:58:32;15.40;70.30
35700;DHT22;21818;51.078;12.108;2023-02-14T13:06:40;15.90;69.50
35700;DHT22;21818;51.078;12.108;2023-02-14T13:09:17;16.00;69.30
35700;DHT22;21818;51.078;12.108;2023-02-14T13:14:47;16.30;68.60
35700;DHT22;21818;51.078;12.108;2023-02-14T13:22:26;16.60;68.10
35700;DHT22;21818;51.078;12.108;2023-02-14T13:24:56;16.70;67.90
35700;DHT22;21818;51.078;12.108;2023-02-14T13:27:27;16.70;67.60
35700;DHT22;21818;51.078;12.108;2023-02-14T13:30:02;16.80;67.40
35700;DHT22;21818;51.078;12.108;2023-02-14T13:32:34;16.90;67.30
35700;DHT22;21818;51.078;12.108;2023-02-14T13:35:02;16.90;67.00
35700;DHT22;21818;51.078;12.108;2023-02-14T13:37:29;17.00;66.90
35700;DHT22;21818;51.078;12.108;2023-02-14T13:40:07;17.10;66.70
35700;DHT22;21818;51.078;12.108;2023-02-14T13:51:00;17.30;65.90
35700;DHT22;21818;51.078;12.108;2023-02-14T13:59:13;17.40;65.30
35700;DHT22;21818;51.078;12.108;2023-02-14T14:01:48;17.50;65.20
35700;DHT22;21818;51.078;12.108;2023-02-14T14:09:51;17.60;64.70
35700;DHT22;21818;51.078;12.108;2023-02-14T14:17:29;17.80;64.40
35700;DHT22;21818;51.078;12.108;2023-02-14T14:19:55;17.80;64.20
35700;DHT22;21818;51.078;12.108;2023-02-14T14:22:22;17.90;64.20
35700;DHT22;21818;51.078;12.108;2023-02-14T14:27:23;18.00;63.80
35700;DHT22;21818;51.078;12.108;2023-02-14T14:30:00;18.00;63.70
35700;DHT22;21818;51.078;12.108;2023-02-14T14:32:36;18.00;63.50
35700;DHT22;21818;51.078;12.108;2023-02-14T14:37:47;18.10;63.40
35700;DHT22;21818;51.078;12.108;2023-02-14T14:42:47;18.10;63.30
35700;DHT22;21818;51.078;12.108;2023-02-14T14:45:23;18.10;63.30
35700;DHT22;21818;51.078;12.108;2023-02-14T14:47:54;18.10;63.10
35700;DHT22;21818;51.078;12.108;2023-02-14T14:50:25;18.10;63.00
35700;DHT22;21818;51.078;12.108;2023-02-14T14:52:52;18.10;63.10
35700;DHT22;21818;51.078;12.108;2023-02-14T14:55:20;18.10;63.30
35700;DHT22;21818;51.078;12.108;2023-02-14T14:57:51;18.10;63.30
35700;DHT22;21818;51.078;12.108;2023-02-14T15:00:19;18.10;63.10
35700;DHT22;21818;51.078;12.108;2023-02-14T15:02:59;18.10;63.00
35700;DHT22;21818;51.078;12.108;2023-02-14T15:05:32;18.10;62.90
35700;DHT22;21818;51.078;12.108;2023-02-14T15:11:05;18.10;62.90
35700;DHT22;21818;51.078;12.108;2023-02-14T15:13:39;18.10;63.60
35700;DHT22;21818;51.078;12.108;2023-02-14T15:16:31;18.00;63.00
35700;DHT22;21818;51.078;12.108;2023-02-14T15:21:56;18.00;63.00
35700;DHT22;21818;51.078;12.108;2023-02-14T15:24:21;18.00;63.10
35700;DHT22;21818;51.078;12.108;2023-02-14T15:26:48;17.90;63.00
35700;DHT22;21818;51.078;12.108;2023-02-14T15:29:23;17.90;63.00
35700;DHT22;21818;51.078;12.108;2023-02-14T15:31:49;17.90;62.90
35700;DHT22;21818;51.078;12.108;2023-02-14T15:34:21;17.80;63.00
35700;DHT22;21818;51.078;12.108;2023-02-14T15:36:48;17.80;63.00
35700;DHT22;21818;51.078;12.108;2023-02-14T15:39:26;17.70;63.10
35700;DHT22;21818;51.078;12.108;2023-02-14T15:41:53;17.70;63.20
35700;DHT22;21818;51.078;12.108;2023-02-14T15:44:21;17.50;63.30
35700;DHT22;21818;51.078;12.108;2023-02-14T15:46:51;17.40;63.50
35700;DHT22;21818;51.078;12.108;2023-02-14T15:49:20;17.30;63.70
35700;DHT22;21818;51.078;12.108;2023-02-14T15:51:48;17.20;63.90
35700;DHT22;21818;51.078;12.108;2023-02-14T15:54:28;17.10;64.00
35700;DHT22;21818;51.078;12.108;2023-02-14T15:56:56;17.00;64.10
35700;DHT22;21818;51.078;12.108;2023-02-14T15:59:24;17.00;64.30
35700;DHT22;21818;51.078;12.108;2023-02-14T16:02:00;16.90;64.30
35700;DHT22;21818;51.078;12.108;2023-02-14T16:04:29;16.90;64.50
35700;DHT22;21818;51.078;12.108;2023-02-14T16:07:24;16.70;64.50
35700;DHT22;21818;51.078;12.108;2023-02-14T16:10:23;16.70;64.70
35700;DHT22;21818;51.078;12.108;2023-02-14T16:15:43;16.50;65.10
35700;DHT22;21818;51.078;12.108;2023-02-14T16:18:40;16.40;65.20
35700;DHT22;21818;51.078;12.108;2023-02-14T16:23:42;16.30;65.50
35700;DHT22;21818;51.078;12.108;2023-02-14T16:26:09;16.20;65.70
35700;DHT22;21818;51.078;12.108;2023-02-14T16:28:35;16.20;65.80
35700;DHT22;21818;51.078;12.108;2023-02-14T16:31:02;16.10;65.90
35700;DHT22;21818;51.078;12.108;2023-02-14T16:33:33;16.00;65.90
35700;DHT22;21818;51.078;12.108;2023-02-14T16:36:22;16.00;66.10
35700;DHT22;21818;51.078;12.108;2023-02-14T16:38:49;16.00;66.30
35700;DHT22;21818;51.078;12.108;2023-02-14T16:41:20;15.90;66.40
35700;DHT22;21818;51.078;12.108;2023-02-14T16:43:47;15.90;66.50
35700;DHT22;21818;51.078;12.108;2023-02-14T16:46:15;15.80;66.60
35700;DHT22;21818;51.078;12.108;2023-02-14T16:48:42;15.80;66.80
35700;DHT22;21818;51.078;12.108;2023-02-14T16:51:13;15.70;66.90
35700;DHT22;21818;51.078;12.108;2023-02-14T16:53:40;15.60;67.10
35700;DHT22;21818;51.078;12.108;2023-02-14T16:56:10;15.60;67.30
35700;DHT22;21818;51.078;12.108;2023-02-14T16:58:38;15.60;67.50
35700;DHT22;21818;51.078;12.108;2023-02-14T17:01:03;15.50;68.10
35700;DHT22;21818;51.078;12.108;2023-02-14T17:03:29;15.50;67.70
35700;DHT22;21818;51.078;12.108;2023-02-14T17:05:56;15.40;67.80
35700;DHT22;21818;51.078;12.108;2023-02-14T17:08:22;15.40;68.00
35700;DHT22;21818;51.078;12.108;2023-02-14T17:10:48;15.30;68.10
35700;DHT22;21818;51.078;12.108;2023-02-14T17:13:19;15.30;68.20
35700;DHT22;21818;51.078;12.108;2023-02-14T17:15:46;15.20;68.30
35700;DHT22;21818;51.078;12.108;2023-02-14T17:18:14;15.20;68.50
35700;DHT22;21818;51.078;12.108;2023-02-14T17:20:41;15.20;68.60
35700;DHT22;21818;51.078;12.108;2023-02-14T17:23:07;15.10;68.70
35700;DHT22;21818;51.078;12.108;2023-02-14T17:25:33;15.10;68.80
35700;DHT22;21818;51.078;12.108;2023-02-14T17:27:59;15.10;68.90
35700;DHT22;21818;51.078;12.108;2023-02-14T17:30:25;15.00;69.00
35700;DHT22;21818;51.078;12.108;2023-02-14T17:32:51;15.00;69.00
35700;DHT22;21818;51.078;12.108;2023-02-14T17:35:17;15.00;69.20
35700;DHT22;21818;51.078;12.108;2023-02-14T17:37:43;14.90;69.20
35700;DHT22;21818;51.078;12.108;2023-02-14T17:40:09;14.90;69.30
35700;DHT22;21818;51.078;12.108;2023-02-14T17:42:35;14.90;69.40
35700;DHT22;21818;51.078;12.108;2023-02-14T17:45:03;14.80;69.50
35700;DHT22;21818;51.078;12.108;2023-02-14T17:47:31;14.80;69.60
35700;DHT22;21818;51.078;12.108;2023-02-14T17:49:56;14.80;69.70
35700;DHT22;21818;51.078;12.108;2023-02-14T17:52:22;14.80;69.80
35700;DHT22;21818;51.078;12.108;2023-02-14T17:54:48;14.80;69.80
35700;DHT22;21818;51.078;12.108;2023-02-14T17:57:14;14.80;69.90
35700;DHT22;21818;51.078;12.108;2023-02-14T17:59:40;14.80;69.90
35700;DHT22;21818;51.078;12.108;2023-02-14T18:02:07;14.80;69.90
35700;DHT22;21818;51.078;12.108;2023-02-14T18:04:34;14.70;69.90
35700;DHT22;21818;51.078;12.108;2023-02-14T18:07:01;14.70;70.00
35700;DHT22;21818;51.078;12.108;2023-02-14T18:09:27;14.70;70.20
35700;DHT22;21818;51.078;12.108;2023-02-14T18:11:53;14.70;70.20
35700;DHT22;21818;51.078;12.108;2023-02-14T18:14:20;14.70;70.30
35700;DHT22;21818;51.078;12.108;2023-02-14T18:16:46;14.70;70.40
35700;DHT22;21818;51.078;12.108;2023-02-14T18:19:12;14.60;70.40
35700;DHT22;21818;51.078;12.108;2023-02-14T18:21:41;14.60;70.50
35700;DHT22;21818;51.078;12.108;2023-02-14T18:24:07;14.60;70.60
35700;DHT22;21818;51.078;12.108;2023-02-14T18:26:35;14.60;70.60
35700;DHT22;21818;51.078;12.108;2023-02-14T18:29:01;14.60;70.70
35700;DHT22;21818;51.078;12.108;2023-02-14T18:31:31;14.60;70.80
35700;DHT22;21818;51.078;12.108;2023-02-14T18:33:58;14.60;70.80